Time;durP1;ratioP1;P1;durP2;ratioP2;P2;SDS_P1;SDS_P2;PMS_P1;PMS_P2;Temp;Humidity;BMP_temperature;BMP_pressure;BME280_temperature;BME280_humidity;BME280_pressure;Samples;Min_cycle;Max_cycle;Signal;HPM_P1;HPM_P2
2021/07/03 00:02:27;;;;;;;20.37;11.00;;;;;;;;;;4976686;28;20216;-75
2021/07/03 00:04:54;;;;;;;17.57;10.50;;;;;;;;;;4979350;28;20555;-75
2021/07/03 00:07:21;;;;;;;21.30;10.53;;;;;;;;;;4976051;28;20210;-75
2021/07/03 00:09:48;;;;;;;18.23;10.97;;;;;;;;;;4977255;28;21294;-75
2021/07/03 00:12:16;;;;;;;20.47;11.10;;;;;;;;;;4977937;28;20209;-75
2021/07/03 00:14:43;;;;;;;19.07;10.50;;;;;;;;;;4978958;28;20312;-77
2021/07/03 00:17:10;;;;;;;21.13;10.17;;;;;;;;;;4977299;28;20297;-76
2021/07/03 00:19:38;;;;;;;17.77;11.33;;;;;;;;;;4978815;28;20780;-75
2021/07/03 00:22:06;;;;;;;19.27;11.43;;;;;;;;;;4977009;28;20213;-75
2021/07/03 00:24:33;;;;;;;21.03;11.37;;;;;;;;;;4976286;28;20594;-74
2021/07/03 00:27:00;;;;;;;18.47;10.93;;;;;;;;;;4976439;28;20561;-75
2021/07/03 00:29:27;;;;;;;18.20;10.17;;;;;;;;;;4976435;28;20216;-75
2021/07/03 00:31:54;;;;;;;18.60;9.97;;;;;;;;;;4973819;28;20209;-75
2021/07/03 00:34:21;;;;;;;20.70;10.90;;;;;;;;;;4974043;28;20239;-75
2021/07/03 00:36:50;;;;;;;16.83;10.40;;;;;;;;;;4975332;28;20288;-75
2021/07/03 00:39:17;;;;;;;16.77;9.67;;;;;;;;;;4973739;28;20505;-74
2021/07/03 00:41:44;;;;;;;22.60;10.30;;;;;;;;;;4977494;28;20693;-75
2021/07/03 00:44:11;;;;;;;15.20;9.77;;;;;;;;;;4977962;28;20201;-75
2021/07/03 00:46:39;;;;;;;19.30;10.67;;;;;;;;;;4976988;28;20205;-74
2021/07/03 00:49:06;;;;;;;18.77;9.97;;;;;;;;;;4973067;28;20577;-75
2021/07/03 00:51:34;;;;;;;18.43;10.43;;;;;;;;;;4974343;28;20768;-74
2021/07/03 00:54:02;;;;;;;17.40;10.10;;;;;;;;;;4975255;28;20864;-74
2021/07/03 00:56:29;;;;;;;18.03;9.63;;;;;;;;;;4976688;28;20209;-74
2021/07/03 00:58:56;;;;;;;16.53;9.53;;;;;;;;;;4976100;28;20220;-74
2021/07/03 01:01:23;;;;;;;20.13;10.33;;;;;;;;;;4975469;28;20558;-75
2021/07/03 01:03:51;;;;;;;22.93;11.00;;;;;;;;;;4975165;28;20209;-74
2021/07/03 01:06:18;;;;;;;23.43;10.70;;;;;;;;;;4975783;28;20217;-74
2021/07/03 01:08:45;;;;;;;19.17;10.23;;;;;;;;;;4974817;28;20677;-74
2021/07/03 01:11:24;;;;;;;20.93;10.90;;;;;;;;;;4974183;28;20292;-75
2021/07/03 01:13:51;;;;;;;17.13;9.73;;;;;;;;;;4976253;28;20605;-74
2021/07/03 01:16:18;;;;;;;16.27;10.00;;;;;;;;;;4975288;28;20225;-75
2021/07/03 01:18:45;;;;;;;18.37;9.77;;;;;;;;;;4974114;28;20209;-74
2021/07/03 01:21:12;;;;;;;16.60;9.27;;;;;;;;;;4975113;28;20587;-74
2021/07/03 01:23:41;;;;;;;18.97;10.00;;;;;;;;;;4976976;28;20200;-74
2021/07/03 01:26:08;;;;;;;20.40;9.37;;;;;;;;;;4973339;28;20239;-74
2021/07/03 01:28:35;;;;;;;22.10;10.03;;;;;;;;;;4977113;28;20205;-74
2021/07/03 01:31:03;;;;;;;17.57;8.90;;;;;;;;;;4977936;28;20303;-75
2021/07/03 01:33:30;;;;;;;17.17;10.47;;;;;;;;;;4974792;28;20244;-74
2021/07/03 01:35:57;;;;;;;22.17;9.60;;;;;;;;;;4976518;28;20229;-75
2021/07/03 01:38:25;;;;;;;17.63;9.43;;;;;;;;;;4974207;28;20209;-74
2021/07/03 01:40:54;;;;;;;17.60;9.33;;;;;;;;;;4975054;28;20238;-74
2021/07/03 01:43:21;;;;;;;20.00;9.27;;;;;;;;;;4975409;28;20212;-74
2021/07/03 01:45:48;;;;;;;16.00;9.90;;;;;;;;;;4976096;28;20228;-74
2021/07/03 01:48:23;;;;;;;21.17;10.23;;;;;;;;;;4974890;28;20201;-74
2021/07/03 01:50:50;;;;;;;15.63;9.37;;;;;;;;;;4974472;28;20208;-74
2021/07/03 01:53:18;;;;;;;20.90;9.60;;;;;;;;;;4971931;28;20223;-74
2021/07/03 01:55:45;;;;;;;22.20;9.17;;;;;;;;;;4977012;28;20657;-75
2021/07/03 01:58:17;;;;;;;20.83;9.43;;;;;;;;;;4974854;28;20288;-75
2021/07/03 02:00:45;;;;;;;17.80;9.87;;;;;;;;;;4973065;28;20222;-74
2021/07/03 02:03:12;;;;;;;16.23;9.47;;;;;;;;;;4974658;28;20216;-74
2021/07/03 02:05:39;;;;;;;18.53;9.80;;;;;;;;;;4973826;28;20221;-75
2021/07/03 02:08:06;;;;;;;15.37;8.90;;;;;;;;;;4973282;28;20222;-75
2021/07/03 02:10:33;;;;;;;17.60;9.20;;;;;;;;;;4977831;28;20346;-74
2021/07/03 02:13:00;;;;;;;16.60;9.23;;;;;;;;;;4975432;28;20579;-73
2021/07/03 02:15:29;;;;;;;19.90;10.20;;;;;;;;;;4975065;28;20694;-74
2021/07/03 02:17:56;;;;;;;23.30;9.80;;;;;;;;;;4974935;28;20209;-74
2021/07/03 02:20:23;;;;;;;20.37;9.17;;;;;;;;;;4975382;28;20208;-75
2021/07/03 02:22:50;;;;;;;17.80;9.57;;;;;;;;;;4975867;28;20292;-75
2021/07/03 02:25:18;;;;;;;25.30;10.33;;;;;;;;;;4974265;28;20217;-74
2021/07/03 02:27:45;;;;;;;16.70;9.77;;;;;;;;;;4975945;28;20216;-75
2021/07/03 02:30:13;;;;;;;17.57;9.80;;;;;;;;;;4973215;28;20296;-75
2021/07/03 02:32:42;;;;;;;19.83;10.23;;;;;;;;;;4973220;28;20300;-74
2021/07/03 02:35:11;;;;;;;18.40;9.93;;;;;;;;;;4976779;28;20229;-75
2021/07/03 02:37:38;;;;;;;20.67;10.73;;;;;;;;;;4974571;28;20209;-75
2021/07/03 02:40:06;;;;;;;14.70;8.77;;;;;;;;;;4973943;28;20213;-75
2021/07/03 02:42:33;;;;;;;14.50;9.17;;;;;;;;;;4975149;28;20220;-75
2021/07/03 02:45:00;;;;;;;19.60;8.83;;;;;;;;;;4973969;28;20691;-75
2021/07/03 02:47:28;;;;;;;16.93;9.67;;;;;;;;;;4973327;28;20706;-74
2021/07/03 02:49:56;;;;;;;19.57;9.77;;;;;;;;;;4974055;28;20201;-75
2021/07/03 02:52:23;;;;;;;16.93;9.50;;;;;;;;;;4973529;28;20214;-75
2021/07/03 02:54:50;;;;;;;18.17;10.03;;;;;;;;;;4974200;28;20228;-75
2021/07/03 02:57:17;;;;;;;15.63;9.47;;;;;;;;;;4974946;28;20663;-75
2021/07/03 02:59:45;;;;;;;15.97;8.77;;;;;;;;;;4975714;28;20213;-75
2021/07/03 03:02:12;;;;;;;18.20;9.63;;;;;;;;;;4971643;28;20209;-75
2021/07/03 03:04:39;;;;;;;16.47;9.57;;;;;;;;;;4974183;28;20229;-75
2021/07/03 03:07:08;;;;;;;15.67;9.63;;;;;;;;;;4974201;28;20221;-74
2021/07/03 03:09:35;;;;;;;14.60;9.03;;;;;;;;;;4976195;28;20209;-74
2021/07/03 03:12:02;;;;;;;16.57;8.83;;;;;;;;;;4972438;28;20272;-74
2021/07/03 03:14:30;;;;;;;17.13;9.10;;;;;;;;;;4974493;28;21205;-74
2021/07/03 03:16:57;;;;;;;17.77;9.17;;;;;;;;;;4975883;28;20205;-74
2021/07/03 03:19:24;;;;;;;19.13;8.60;;;;;;;;;;4974279;28;20202;-75
2021/07/03 03:21:51;;;;;;;19.30;8.83;;;;;;;;;;4972634;28;20682;-75
2021/07/03 03:24:20;;;;;;;16.87;8.93;;;;;;;;;;4973864;28;20663;-75
2021/07/03 03:26:47;;;;;;;17.20;9.10;;;;;;;;;;4973361;28;20201;-75
2021/07/03 03:29:14;;;;;;;17.17;9.37;;;;;;;;;;4974065;28;20203;-75
2021/07/03 03:31:41;;;;;;;22.67;8.57;;;;;;;;;;4972227;28;20213;-75
2021/07/03 03:34:08;;;;;;;13.70;8.43;;;;;;;;;;4973627;28;20312;-75
2021/07/03 03:36:35;;;;;;;17.77;9.30;;;;;;;;;;4977144;28;20206;-75
2021/07/03 03:39:02;;;;;;;17.77;10.03;;;;;;;;;;4979185;28;20611;-75
2021/07/03 03:41:31;;;;;;;20.47;8.73;;;;;;;;;;4977347;28;20198;-75
2021/07/03 03:43:58;;;;;;;17.70;8.70;;;;;;;;;;4978042;28;20210;-75
2021/07/03 03:46:25;;;;;;;18.93;8.33;;;;;;;;;;4978704;28;20698;-75
2021/07/03 03:48:52;;;;;;;13.67;8.27;;;;;;;;;;4980476;28;20209;-75
2021/07/03 03:51:20;;;;;;;13.60;8.03;;;;;;;;;;4977455;28;20305;-75
2021/07/03 03:53:47;;;;;;;18.23;8.13;;;;;;;;;;4975601;28;20225;-75
2021/07/03 03:56:14;;;;;;;13.00;8.13;;;;;;;;;;4978676;28;21970;-75
2021/07/03 03:58:42;;;;;;;21.57;8.43;;;;;;;;;;4977620;28;20288;-75
2021/07/03 04:01:09;;;;;;;13.83;8.07;;;;;;;;;;4974786;28;20212;-75
2021/07/03 04:03:37;;;;;;;11.13;6.93;;;;;;;;;;4978221;28;20206;-75
2021/07/03 04:06:04;;;;;;;11.67;7.37;;;;;;;;;;4976343;28;20308;-75
2021/07/03 04:08:31;;;;;;;13.13;6.67;;;;;;;;;;4974817;28;20210;-75
2021/07/03 04:10:58;;;;;;;9.63;6.00;;;;;;;;;;4975964;28;20209;-75
2021/07/03 04:13:25;;;;;;;10.73;6.07;;;;;;;;;;4977388;28;20197;-75
2021/07/03 04:15:54;;;;;;;10.80;6.50;;;;;;;;;;4976262;28;20225;-75
2021/07/03 04:18:21;;;;;;;12.30;6.43;;;;;;;;;;4978540;28;20291;-76
2021/07/03 04:20:48;;;;;;;8.83;6.17;;;;;;;;;;4976662;28;20663;-75
2021/07/03 04:23:15;;;;;;;12.87;6.40;;;;;;;;;;4974556;28;20285;-76
2021/07/03 04:25:42;;;;;;;10.93;5.93;;;;;;;;;;4977238;28;20256;-76
2021/07/03 04:28:10;;;;;;;10.67;6.20;;;;;;;;;;4973897;28;20216;-75
2021/07/03 04:30:37;;;;;;;10.67;5.83;;;;;;;;;;4974864;28;20206;-76
2021/07/03 04:33:06;;;;;;;9.80;5.67;;;;;;;;;;4977817;28;20580;-77
2021/07/03 04:35:33;;;;;;;11.47;5.70;;;;;;;;;;4982605;28;20628;-76
2021/07/03 04:38:01;;;;;;;12.40;5.57;;;;;;;;;;4978860;28;20621;-76
2021/07/03 04:40:28;;;;;;;8.97;5.60;;;;;;;;;;4979183;28;20299;-76
2021/07/03 04:42:55;;;;;;;6.50;4.93;;;;;;;;;;4979624;28;20297;-76
2021/07/03 04:45:22;;;;;;;8.00;5.80;;;;;;;;;;4980558;28;20300;-76
2021/07/03 04:47:51;;;;;;;8.57;5.43;;;;;;;;;;4980862;28;20212;-76
2021/07/03 04:50:19;;;;;;;10.53;5.30;;;;;;;;;;4982177;28;20209;-76
2021/07/03 04:52:47;;;;;;;7.30;5.20;;;;;;;;;;4979415;28;20212;-76
2021/07/03 04:55:14;;;;;;;6.83;5.00;;;;;;;;;;4980492;28;20491;-76
2021/07/03 04:57:42;;;;;;;8.83;5.40;;;;;;;;;;4979930;28;20302;-76
2021/07/03 05:00:10;;;;;;;12.43;5.30;;;;;;;;;;4979767;28;20224;-76
2021/07/03 05:02:37;;;;;;;9.07;4.70;;;;;;;;;;4979439;28;20258;-76
2021/07/03 05:05:04;;;;;;;7.97;5.20;;;;;;;;;;4979129;28;20231;-76
2021/07/03 05:07:33;;;;;;;9.00;5.20;;;;;;;;;;4978177;28;20711;-76
2021/07/03 05:10:00;;;;;;;7.37;5.20;;;;;;;;;;4976087;28;20658;-77
2021/07/03 05:12:27;;;;;;;6.83;4.93;;;;;;;;;;4980435;28;20663;-76
2021/07/03 05:14:54;;;;;;;10.03;5.43;;;;;;;;;;4978918;28;20323;-76
2021/07/03 05:17:21;;;;;;;8.90;4.90;;;;;;;;;;4980253;28;20205;-76
2021/07/03 05:19:48;;;;;;;10.03;5.43;;;;;;;;;;4984548;28;20292;-76
2021/07/03 05:22:16;;;;;;;10.33;5.47;;;;;;;;;;4978398;28;20219;-76
2021/07/03 05:24:44;;;;;;;9.53;5.03;;;;;;;;;;4981286;28;20252;-77
2021/07/03 05:27:11;;;;;;;9.97;4.97;;;;;;;;;;4984042;28;20209;-77
2021/07/03 05:29:39;;;;;;;11.20;4.97;;;;;;;;;;4979355;28;20205;-76
2021/07/03 05:32:06;;;;;;;7.93;4.90;;;;;;;;;;4976814;28;20216;-76
2021/07/03 05:34:33;;;;;;;6.77;5.00;;;;;;;;;;4975412;28;20724;-76
2021/07/03 05:37:00;;;;;;;11.63;5.33;;;;;;;;;;4972786;28;20212;-77
2021/07/03 05:39:28;;;;;;;8.70;5.03;;;;;;;;;;4976622;28;20261;-78
2021/07/03 05:41:56;;;;;;;8.03;5.47;;;;;;;;;;4977245;28;20202;-77
2021/07/03 05:44:24;;;;;;;11.63;5.03;;;;;;;;;;4977611;28;20224;-78
2021/07/03 05:46:51;;;;;;;8.27;5.03;;;;;;;;;;4976711;28;20217;-77
2021/07/03 05:49:18;;;;;;;9.83;5.37;;;;;;;;;;4974252;28;20852;-78
2021/07/03 05:51:46;;;;;;;9.80;5.23;;;;;;;;;;4975849;28;20308;-78
2021/07/03 05:54:13;;;;;;;12.13;5.00;;;;;;;;;;4975758;28;20209;-77
2021/07/03 05:56:40;;;;;;;8.03;5.33;;;;;;;;;;4975511;28;20225;-78
2021/07/03 05:59:09;;;;;;;8.20;4.90;;;;;;;;;;4975154;28;20217;-78
2021/07/03 06:01:36;;;;;;;8.60;5.10;;;;;;;;;;4980392;28;20438;-77
2021/07/03 06:04:03;;;;;;;9.00;5.80;;;;;;;;;;4974797;28;20198;-77
2021/07/03 06:06:31;;;;;;;6.97;5.67;;;;;;;;;;4974628;28;20404;-78
2021/07/03 06:08:58;;;;;;;8.17;5.57;;;;;;;;;;4976440;28;21292;-78
2021/07/03 06:11:25;;;;;;;10.20;5.83;;;;;;;;;;4974792;28;20201;-77
2021/07/03 06:13:54;;;;;;;8.33;5.10;;;;;;;;;;4975637;28;20217;-77
2021/07/03 06:16:22;;;;;;;7.67;4.90;;;;;;;;;;4977069;28;20225;-78
2021/07/03 06:18:49;;;;;;;10.77;5.27;;;;;;;;;;4976004;28;20305;-77
2021/07/03 06:21:16;;;;;;;8.83;4.67;;;;;;;;;;4976836;28;20678;-76
2021/07/03 06:23:44;;;;;;;8.07;5.23;;;;;;;;;;4975861;28;20288;-77
2021/07/03 06:26:11;;;;;;;8.47;4.80;;;;;;;;;;4977252;28;20237;-78
2021/07/03 06:28:38;;;;;;;7.53;5.30;;;;;;;;;;4976322;28;20303;-78
2021/07/03 06:31:05;;;;;;;7.47;5.13;;;;;;;;;;4976352;28;20302;-78
2021/07/03 06:33:34;;;;;;;10.53;4.90;;;;;;;;;;4974484;28;20292;-78
2021/07/03 06:36:01;;;;;;;6.07;4.33;;;;;;;;;;4980409;28;21567;-78
2021/07/03 06:38:28;;;;;;;7.87;4.43;;;;;;;;;;4975580;28;20215;-79
2021/07/03 06:40:55;;;;;;;5.87;4.47;;;;;;;;;;4973932;28;20217;-79
2021/07/03 06:43:22;;;;;;;6.33;4.33;;;;;;;;;;4970152;28;20212;-79
2021/07/03 06:45:49;;;;;;;9.13;4.40;;;;;;;;;;4969305;28;20325;-79
2021/07/03 06:48:17;;;;;;;7.40;4.60;;;;;;;;;;4979861;28;20217;-78
2021/07/03 06:50:45;;;;;;;5.93;4.73;;;;;;;;;;4975653;28;20228;-78
2021/07/03 06:53:12;;;;;;;7.23;5.07;;;;;;;;;;4972759;28;21632;-80
2021/07/03 06:55:39;;;;;;;8.27;4.70;;;;;;;;;;4969939;28;20237;-79
2021/07/03 06:58:07;;;;;;;7.95;5.07;;;;;;;;;;4970947;28;20211;-79
2021/07/03 07:00:34;;;;;;;8.98;5.35;;;;;;;;;;4969651;28;20959;-80
2021/07/03 07:03:01;;;;;;;8.00;5.20;;;;;;;;;;4970552;28;20560;-77
2021/07/03 07:05:29;;;;;;;10.87;5.50;;;;;;;;;;4971976;28;20779;-78
2021/07/03 07:07:58;;;;;;;7.20;5.03;;;;;;;;;;4970604;28;20567;-79
2021/07/03 07:10:25;;;;;;;8.43;5.87;;;;;;;;;;4971369;28;20210;-78
2021/07/03 07:12:52;;;;;;;8.60;4.97;;;;;;;;;;4965695;28;20289;-76
2021/07/03 07:15:19;;;;;;;9.25;5.22;;;;;;;;;;4967312;28;20235;-76
2021/07/03 07:17:47;;;;;;;7.30;5.05;;;;;;;;;;4967228;28;20205;-76
2021/07/03 07:20:14;;;;;;;8.45;5.10;;;;;;;;;;4966468;28;20289;-76
2021/07/03 07:22:41;;;;;;;9.05;5.20;;;;;;;;;;4969164;28;20221;-76
2021/07/03 07:25:11;;;;;;;10.13;5.43;;;;;;;;;;4973775;28;20339;-76
2021/07/03 07:27:38;;;;;;;7.75;5.22;;;;;;;;;;4968146;28;20942;-77
2021/07/03 07:30:06;;;;;;;11.98;6.05;;;;;;;;;;4969308;28;20218;-77
2021/07/03 07:32:33;;;;;;;7.03;5.05;;;;;;;;;;4968981;28;20199;-77
2021/07/03 07:35:01;;;;;;;7.47;4.95;;;;;;;;;;4970789;28;20237;-77
2021/07/03 07:37:28;;;;;;;8.45;5.10;;;;;;;;;;4969839;28;20208;-77
2021/07/03 07:39:55;;;;;;;7.90;4.80;;;;;;;;;;4969870;28;20219;-78
2021/07/03 07:42:24;;;;;;;7.43;4.75;;;;;;;;;;4973123;28;20233;-77
2021/07/03 07:44:51;;;;;;;8.63;5.20;;;;;;;;;;4968697;28;20229;-77
2021/07/03 07:47:18;;;;;;;6.43;4.78;;;;;;;;;;4969920;28;20201;-78
2021/07/03 07:49:45;;;;;;;8.55;4.85;;;;;;;;;;4972183;28;20229;-77
2021/07/03 07:52:13;;;;;;;7.82;5.43;;;;;;;;;;4969112;28;20209;-75
2021/07/03 07:54:40;;;;;;;6.88;4.30;;;;;;;;;;4971080;28;20414;-78
2021/07/03 07:57:07;;;;;;;6.40;4.60;;;;;;;;;;4972604;28;20229;-77
2021/07/03 07:59:35;;;;;;;6.97;4.63;;;;;;;;;;4975025;28;20202;-80
2021/07/03 08:02:03;;;;;;;8.93;5.30;;;;;;;;;;4975764;28;20208;-78
2021/07/03 08:06:58;;;;;;;7.75;5.13;;;;;;;;;;4954488;28;20576;-76
2021/07/03 08:09:25;;;;;;;6.90;4.55;;;;;;;;;;4952440;28;20333;-75
2021/07/03 08:11:52;;;;;;;7.18;4.78;;;;;;;;;;4949503;28;21523;-75
2021/07/03 08:14:20;;;;;;;7.03;4.90;;;;;;;;;;4952716;28;20680;-75
2021/07/03 08:16:48;;;;;;;7.88;4.55;;;;;;;;;;5048867;22;20261;-75
2021/07/03 08:19:16;;;;;;;9.88;5.22;;;;;;;;;;5075106;28;20326;-75
2021/07/03 08:21:43;;;;;;;9.32;4.63;;;;;;;;;;5077714;28;20275;-74
2021/07/03 08:24:10;;;;;;;7.60;4.50;;;;;;;;;;5079859;28;20206;-73
2021/07/03 08:26:37;;;;;;;6.03;3.90;;;;;;;;;;5078009;28;20225;-74
2021/07/03 08:29:04;;;;;;;8.82;4.57;;;;;;;;;;5078972;28;20560;-74
2021/07/03 08:31:33;;;;;;;6.90;4.18;;;;;;;;;;5081778;28;20290;-73
2021/07/03 08:34:02;;;;;;;7.00;4.50;;;;;;;;;;5082851;28;20237;-77
2021/07/03 08:36:30;;;;;;;8.65;4.70;;;;;;;;;;5077562;28;20224;-75
2021/07/03 08:38:57;;;;;;;6.60;4.10;;;;;;;;;;5077790;28;20205;-73
2021/07/03 08:41:24;;;;;;;7.30;4.15;;;;;;;;;;5080938;28;20573;-75
2021/07/03 08:43:52;;;;;;;7.20;4.43;;;;;;;;;;5078010;28;20630;-75
2021/07/03 08:46:19;;;;;;;7.20;4.13;;;;;;;;;;5078918;28;20256;-75
2021/07/03 08:48:47;;;;;;;8.90;4.40;;;;;;;;;;5078231;28;20630;-75
2021/07/03 08:51:15;;;;;;;5.72;4.03;;;;;;;;;;5075675;28;20202;-75
2021/07/03 08:53:42;;;;;;;10.30;4.53;;;;;;;;;;5080348;28;20285;-75
2021/07/03 08:56:09;;;;;;;6.05;4.47;;;;;;;;;;5073226;28;20234;-76
2021/07/03 08:58:37;;;;;;;7.40;4.28;;;;;;;;;;5079015;28;20299;-75
2021/07/03 09:01:04;;;;;;;4.53;3.50;;;;;;;;;;5075742;28;20266;-75
2021/07/03 09:03:32;;;;;;;7.82;4.30;;;;;;;;;;5075544;28;20202;-75
2021/07/03 09:05:59;;;;;;;8.13;4.00;;;;;;;;;;5074738;28;20222;-75
2021/07/03 09:08:29;;;;;;;5.43;4.28;;;;;;;;;;5061609;28;20213;-76
2021/07/03 09:11:00;;;;;;;6.88;4.30;;;;;;;;;;5070929;28;20243;-76
2021/07/03 09:13:27;;;;;;;6.20;4.30;;;;;;;;;;5073870;28;20213;-76
2021/07/03 09:15:54;;;;;;;7.57;4.05;;;;;;;;;;5077042;28;20434;-75
2021/07/03 09:18:22;;;;;;;4.93;4.00;;;;;;;;;;5083312;28;20560;-75
2021/07/03 09:20:52;;;;;;;9.93;4.53;;;;;;;;;;5073696;28;20202;-73
2021/07/03 09:23:20;;;;;;;6.83;4.63;;;;;;;;;;5071344;28;20205;-74
2021/07/03 09:25:50;;;;;;;11.53;4.30;;;;;;;;;;5075835;28;20336;-75
2021/07/03 09:28:18;;;;;;;6.33;4.20;;;;;;;;;;5072089;28;20213;-75
2021/07/03 09:30:46;;;;;;;8.93;5.17;;;;;;;;;;5073199;28;21652;-77
2021/07/03 09:33:17;;;;;;;6.90;4.37;;;;;;;;;;5071704;28;20290;-78
2021/07/03 09:35:44;;;;;;;8.67;4.37;;;;;;;;;;5075695;28;20602;-77
2021/07/03 09:38:13;;;;;;;9.13;4.63;;;;;;;;;;5076178;28;20204;-77
2021/07/03 09:40:41;;;;;;;9.70;4.93;;;;;;;;;;5079470;28;20659;-77
2021/07/03 09:43:10;;;;;;;6.77;4.77;;;;;;;;;;5074258;28;20289;-78
2021/07/03 09:45:38;;;;;;;7.67;4.70;;;;;;;;;;5078687;28;20711;-78
2021/07/03 09:48:07;;;;;;;7.63;4.60;;;;;;;;;;5076641;28;20296;-77
2021/07/03 09:50:34;;;;;;;7.37;4.67;;;;;;;;;;5079365;28;20226;-77
2021/07/03 09:53:02;;;;;;;8.67;4.73;;;;;;;;;;5077380;28;20212;-76
2021/07/03 09:55:29;;;;;;;7.77;4.77;;;;;;;;;;5080204;28;20221;-75
2021/07/03 09:57:58;;;;;;;7.80;5.03;;;;;;;;;;5077990;28;20236;-76
2021/07/03 10:00:27;;;;;;;6.93;4.80;;;;;;;;;;5078860;28;20205;-78
2021/07/03 10:02:54;;;;;;;6.47;4.60;;;;;;;;;;5077598;28;20203;-76
2021/07/03 10:05:23;;;;;;;7.47;4.93;;;;;;;;;;5080858;28;20316;-75
2021/07/03 10:07:55;;;;;;;7.40;4.80;;;;;;;;;;5073981;28;20195;-76
2021/07/03 10:10:24;;;;;;;9.90;4.73;;;;;;;;;;5076586;28;20290;-76
2021/07/03 10:12:53;;;;;;;7.23;5.00;;;;;;;;;;5076799;28;20212;-75
2021/07/03 10:15:28;;;;;;;8.37;4.77;;;;;;;;;;5077178;28;20389;-76
2021/07/03 10:17:56;;;;;;;6.43;4.87;;;;;;;;;;5076313;28;20786;-77
2021/07/03 10:20:23;;;;;;;12.63;4.97;;;;;;;;;;5072059;28;20220;-76
2021/07/03 10:22:54;;;;;;;6.03;4.40;;;;;;;;;;5073613;28;20842;-77
2021/07/03 10:25:22;;;;;;;7.20;5.03;;;;;;;;;;5071920;28;20256;-77
2021/07/03 10:27:53;;;;;;;11.67;5.20;;;;;;;;;;5077935;28;20199;-76
2021/07/03 10:30:25;;;;;;;9.30;4.80;;;;;;;;;;5097644;28;20204;-76
2021/07/03 10:32:56;;;;;;;5.50;4.20;;;;;;;;;;5081677;28;20210;-76
2021/07/03 10:35:24;;;;;;;6.03;4.60;;;;;;;;;;5098645;28;20683;-76
2021/07/03 10:37:52;;;;;;;10.80;5.00;;;;;;;;;;5095545;28;20228;-77
2021/07/03 10:40:20;;;;;;;8.10;4.57;;;;;;;;;;5074620;28;20743;-77
2021/07/03 10:42:48;;;;;;;10.00;5.27;;;;;;;;;;5073766;28;20463;-76
2021/07/03 10:45:16;;;;;;;9.83;5.30;;;;;;;;;;5073015;28;20249;-77
2021/07/03 10:47:44;;;;;;;7.53;4.50;;;;;;;;;;5075795;28;20490;-76
2021/07/03 10:50:23;;;;;;;9.67;4.53;;;;;;;;;;5074320;28;20206;-76
2021/07/03 10:52:50;;;;;;;7.33;3.93;;;;;;;;;;5071438;28;20285;-76
2021/07/03 10:55:27;;;;;;;5.03;3.77;;;;;;;;;;5077008;28;20222;-76
2021/07/03 10:57:55;;;;;;;6.40;4.07;;;;;;;;;;5072506;28;20230;-76
2021/07/03 11:00:23;;;;;;;6.63;3.97;;;;;;;;;;5076297;28;20236;-77
2021/07/03 11:02:50;;;;;;;5.67;3.73;;;;;;;;;;5081402;28;20214;-76
2021/07/03 11:05:17;;;;;;;6.90;4.10;;;;;;;;;;5080223;28;20270;-76
2021/07/03 11:08:09;;;;;;;8.20;4.00;;;;;;;;;;5076985;28;20202;-75
2021/07/03 11:10:36;;;;;;;5.50;3.90;;;;;;;;;;5074136;28;20213;-74
2021/07/03 11:13:04;;;;;;;5.67;4.20;;;;;;;;;;5081013;28;20197;-75
2021/07/03 11:15:33;;;;;;;6.10;3.60;;;;;;;;;;5076004;28;20290;-74
2021/07/03 11:18:00;;;;;;;6.57;4.27;;;;;;;;;;5074897;28;20218;-74
2021/07/03 11:20:29;;;;;;;6.27;3.80;;;;;;;;;;5075404;28;20202;-74
2021/07/03 11:22:57;;;;;;;5.93;4.20;;;;;;;;;;5074266;28;20194;-73
2021/07/03 11:25:29;;;;;;;6.47;4.20;;;;;;;;;;5075056;28;20247;-74
2021/07/03 11:28:05;;;;;;;6.87;4.10;;;;;;;;;;5072201;28;20570;-75
2021/07/03 11:30:33;;;;;;;6.47;3.67;;;;;;;;;;5075297;28;20333;-75
2021/07/03 11:33:01;;;;;;;5.50;3.83;;;;;;;;;;5076917;28;20556;-74
2021/07/03 11:35:29;;;;;;;7.87;3.87;;;;;;;;;;5077710;28;20214;-74
2021/07/03 11:37:56;;;;;;;6.63;3.90;;;;;;;;;;5075123;28;20229;-74
2021/07/03 11:40:24;;;;;;;6.73;3.80;;;;;;;;;;5080489;28;20205;-74
2021/07/03 11:42:54;;;;;;;5.80;3.27;;;;;;;;;;5074657;28;20216;-74
2021/07/03 11:45:24;;;;;;;6.90;3.53;;;;;;;;;;5072021;28;20317;-75
2021/07/03 11:47:52;;;;;;;4.80;3.37;;;;;;;;;;5073929;28;20305;-74
2021/07/03 11:50:29;;;;;;;5.93;3.33;;;;;;;;;;5075700;28;20633;-74
2021/07/03 11:52:57;;;;;;;4.60;3.27;;;;;;;;;;5075740;28;20610;-74
2021/07/03 11:55:25;;;;;;;5.57;3.63;;;;;;;;;;5074852;28;20218;-75
2021/07/03 11:57:54;;;;;;;4.90;3.57;;;;;;;;;;5074596;28;20214;-75
2021/07/03 12:00:23;;;;;;;17.40;10.40;;;;;;;;;;5076242;28;20231;-75
2021/07/03 12:02:50;;;;;;;13.03;6.30;;;;;;;;;;5075858;28;21321;-74
2021/07/03 12:05:20;;;;;;;7.83;4.00;;;;;;;;;;5076511;28;20657;-75
2021/07/03 12:07:58;;;;;;;5.63;4.00;;;;;;;;;;5075224;28;20198;-74
2021/07/03 12:10:33;;;;;;;4.93;3.50;;;;;;;;;;5077215;28;20728;-76
2021/07/03 12:13:02;;;;;;;6.23;3.67;;;;;;;;;;5079854;28;20234;-76
2021/07/03 12:15:29;;;;;;;5.80;3.57;;;;;;;;;;5078818;28;20229;-75
2021/07/03 12:17:57;;;;;;;5.97;3.77;;;;;;;;;;5075345;28;20261;-75
2021/07/03 12:20:25;;;;;;;7.43;3.83;;;;;;;;;;5077026;28;20686;-76
2021/07/03 12:22:56;;;;;;;7.63;3.93;;;;;;;;;;5076300;28;20234;-75
2021/07/03 12:25:23;;;;;;;5.70;3.80;;;;;;;;;;5078425;28;20221;-75
2021/07/03 12:27:55;;;;;;;5.87;3.83;;;;;;;;;;5079061;28;20299;-75
2021/07/03 12:30:24;;;;;;;7.30;3.50;;;;;;;;;;5080422;28;20289;-75
2021/07/03 12:33:01;;;;;;;5.57;4.00;;;;;;;;;;5077741;28;20300;-76
2021/07/03 12:35:33;;;;;;;4.90;3.60;;;;;;;;;;5079985;28;20253;-76
2021/07/03 12:38:01;;;;;;;4.17;3.43;;;;;;;;;;5075312;28;20572;-76
2021/07/03 12:40:32;;;;;;;7.10;4.10;;;;;;;;;;5085081;28;20216;-75
2021/07/03 12:43:00;;;;;;;7.07;4.03;;;;;;;;;;5075389;28;20295;-75
2021/07/03 12:45:28;;;;;;;4.87;2.93;;;;;;;;;;5073941;28;20291;-75
2021/07/03 12:48:04;;;;;;;5.97;2.83;;;;;;;;;;5077779;28;20202;-76
2021/07/03 12:50:31;;;;;;;6.40;3.33;;;;;;;;;;5077125;28;20252;-76
2021/07/03 12:53:04;;;;;;;3.53;2.90;;;;;;;;;;5075489;28;20194;-76
2021/07/03 12:55:35;;;;;;;4.10;2.77;;;;;;;;;;5076052;28;20284;-75
2021/07/03 12:58:02;;;;;;;5.03;2.83;;;;;;;;;;5075511;28;20644;-75
2021/07/03 13:00:30;;;;;;;4.80;3.37;;;;;;;;;;5075244;28;20217;-76
2021/07/03 13:03:00;;;;;;;7.40;2.70;;;;;;;;;;5077441;28;20201;-75
2021/07/03 13:05:27;;;;;;;4.30;2.70;;;;;;;;;;5077475;28;20275;-76
2021/07/03 13:07:54;;;;;;;3.97;2.63;;;;;;;;;;5075074;28;20223;-76
2021/07/03 13:10:21;;;;;;;4.27;2.60;;;;;;;;;;5078141;28;20213;-76
2021/07/03 13:12:49;;;;;;;3.83;2.50;;;;;;;;;;5074185;28;20196;-76
2021/07/03 13:15:16;;;;;;;4.13;2.73;;;;;;;;;;5076525;28;20253;-76
2021/07/03 13:17:44;;;;;;;4.10;2.90;;;;;;;;;;5076953;28;20287;-76
2021/07/03 13:20:12;;;;;;;4.90;2.80;;;;;;;;;;5072999;28;20206;-76
2021/07/03 13:22:40;;;;;;;6.13;2.80;;;;;;;;;;5078672;28;20574;-76
2021/07/03 13:25:07;;;;;;;5.60;2.90;;;;;;;;;;5074233;28;20613;-76
2021/07/03 13:27:35;;;;;;;12.43;2.83;;;;;;;;;;5077408;28;20199;-76
2021/07/03 13:30:02;;;;;;;5.43;3.00;;;;;;;;;;5074989;28;20217;-76
2021/07/03 13:32:29;;;;;;;2.67;2.00;;;;;;;;;;5081639;28;20236;-75
2021/07/03 13:34:57;;;;;;;2.93;2.10;;;;;;;;;;5073690;28;20568;-76
2021/07/03 13:37:25;;;;;;;2.50;1.83;;;;;;;;;;5071995;28;20221;-76
2021/07/03 13:39:52;;;;;;;2.83;2.10;;;;;;;;;;5076547;28;20261;-76
2021/07/03 13:42:22;;;;;;;3.20;1.97;;;;;;;;;;5077082;28;20310;-76
2021/07/03 13:44:49;;;;;;;2.60;2.13;;;;;;;;;;5074389;28;20227;-75
2021/07/03 13:47:16;;;;;;;3.57;2.40;;;;;;;;;;5076981;28;20217;-76
2021/07/03 13:49:43;;;;;;;3.07;2.40;;;;;;;;;;5078248;28;20292;-76
2021/07/03 13:52:12;;;;;;;2.90;2.20;;;;;;;;;;5076345;28;20209;-76
2021/07/03 13:54:39;;;;;;;2.83;2.20;;;;;;;;;;5079345;28;20345;-76
2021/07/03 13:57:06;;;;;;;3.33;2.40;;;;;;;;;;5076748;28;20218;-76
2021/07/03 13:59:34;;;;;;;2.40;2.00;;;;;;;;;;5074654;28;20293;-76
2021/07/03 14:02:01;;;;;;;5.43;2.40;;;;;;;;;;5079275;28;20206;-76
2021/07/03 14:04:28;;;;;;;7.33;2.63;;;;;;;;;;5074641;28;20230;-76
2021/07/03 14:06:55;;;;;;;3.00;2.33;;;;;;;;;;5078206;28;20232;-76
2021/07/03 14:09:24;;;;;;;3.50;2.10;;;;;;;;;;5078306;28;20519;-76
2021/07/03 14:11:51;;;;;;;2.50;2.10;;;;;;;;;;5073502;28;20220;-76
2021/07/03 14:14:18;;;;;;;3.00;2.00;;;;;;;;;;5072416;28;20747;-76
2021/07/03 14:16:45;;;;;;;3.60;2.40;;;;;;;;;;5073754;28;20232;-76
2021/07/03 14:19:12;;;;;;;3.17;2.50;;;;;;;;;;5075435;22;20744;-76
2021/07/03 14:21:39;;;;;;;2.53;1.80;;;;;;;;;;5053299;28;20246;-75
2021/07/03 14:24:07;;;;;;;2.50;2.10;;;;;;;;;;5054282;28;20777;-75
2021/07/03 14:26:36;;;;;;;2.47;2.00;;;;;;;;;;5055195;28;20207;-76
2021/07/03 14:29:04;;;;;;;2.77;2.03;;;;;;;;;;5056249;28;20203;-76
2021/07/03 14:31:31;;;;;;;6.23;2.30;;;;;;;;;;5053797;28;20249;-76
2021/07/03 14:33:58;;;;;;;2.10;1.80;;;;;;;;;;5055529;28;20683;-75
2021/07/03 14:36:25;;;;;;;3.67;2.00;;;;;;;;;;5055918;28;20257;-75
2021/07/03 14:38:53;;;;;;;3.27;2.20;;;;;;;;;;5055577;28;20300;-76
2021/07/03 14:41:20;;;;;;;3.20;2.30;;;;;;;;;;5055910;28;20218;-75
2021/07/03 14:43:49;;;;;;;5.23;2.27;;;;;;;;;;5059559;28;20202;-76